Time;durP1;ratioP1;P1;durP2;ratioP2;P2;SDS_P1;SDS_P2;PMS_P1;PMS_P2;Temp;Humidity;BMP_temperature;BMP_pressure;BME280_temperature;BME280_humidity;BME280_pressure;Samples;Min_cycle;Max_cycle;Signal;HPM_P1;HPM_P2
2022/01/30 00:00:54;;;;;;;49.88;34.13;;;24.10;75.10;;;;;;1961846;71;21144;-83
2022/01/30 00:03:24;;;;;;;83.52;58.55;;;24.10;75.10;;;;;;1957308;71;21575;-84
2022/01/30 00:05:56;;;;;;;55.85;37.00;;;24.10;75.50;;;;;;1972157;71;21209;-84
2022/01/30 00:08:26;;;;;;;70.15;49.40;;;24.20;76.20;;;;;;1954150;71;21202;-84
2022/01/30 00:11:05;;;;;;;68.92;47.50;;;24.10;75.80;;;;;;1977162;71;21621;-83
2022/01/30 00:13:29;;;;;;;56.90;39.80;;;24.10;76.10;;;;;;1967844;72;21129;-83
2022/01/30 00:16:04;;;;;;;57.05;41.60;;;24.20;76.60;;;;;;1964133;71;21076;-84
2022/01/30 00:24:02;;;;;;;53.02;39.58;;;24.30;75.50;;;;;;1969493;71;21097;-84
2022/01/30 00:26:14;;;;;;;62.48;44.30;;;24.40;76.00;;;;;;1914412;72;21216;-82
2022/01/30 00:28:43;;;;;;;61.15;44.63;;;24.40;75.30;;;;;;1927397;73;21052;-83
2022/01/30 00:31:17;;;;;;;61.30;43.90;;;24.50;75.60;;;;;;1906186;74;21083;-84
2022/01/30 00:33:46;;;;;;;55.48;41.68;;;24.60;74.60;;;;;;1941519;72;21574;-83
2022/01/30 00:36:17;;;;;;;55.63;40.10;;;24.60;73.90;;;;;;1880591;74;21168;-83
2022/01/30 00:38:47;;;;;;;52.33;39.10;;;24.60;74.10;;;;;;1894360;74;21236;-83
2022/01/30 00:41:18;;;;;;;51.60;37.98;;;24.70;74.40;;;;;;1930756;72;21128;-85
2022/01/30 00:43:49;;;;;;;47.75;37.90;;;24.80;74.30;;;;;;1967695;71;21687;-83
2022/01/30 00:46:20;;;;;;;56.35;38.67;;;24.80;74.10;;;;;;1963767;71;21698;-84
2022/01/30 00:48:51;;;;;;;51.00;38.33;;;24.80;73.60;;;;;;1964293;71;21135;-84
2022/01/30 00:51:22;;;;;;;46.08;35.90;;;24.80;73.50;;;;;;1963586;71;21162;-83
2022/01/30 00:53:53;;;;;;;50.23;38.80;;;24.90;73.40;;;;;;1958939;71;21164;-84
2022/01/30 00:56:23;;;;;;;49.13;39.05;;;24.90;73.30;;;;;;1971665;71;21056;-84
2022/01/30 00:58:54;;;;;;;47.75;37.73;;;25.00;73.50;;;;;;1961732;71;21139;-83
2022/01/30 01:01:24;;;;;;;48.48;37.30;;;25.00;72.80;;;;;;1973138;71;21176;-83
2022/01/30 01:03:56;;;;;;;47.30;37.10;;;25.10;72.70;;;;;;1972203;71;21225;-83
2022/01/30 01:06:26;;;;;;;47.95;36.30;;;25.10;72.40;;;;;;1968812;71;21717;-83
2022/01/30 01:09:03;;;;;;;49.80;37.42;;;25.20;72.00;;;;;;1919860;72;21122;-84
2022/01/30 01:24:10;;;;;;;48.05;37.85;;;25.40;71.50;;;;;;1972245;71;21103;-83
2022/01/30 01:26:41;;;;;;;47.25;37.48;;;25.50;71.50;;;;;;1977652;71;21146;-84
2022/01/30 01:29:15;;;;;;;50.50;34.92;;;25.50;71.30;;;;;;1953504;72;21065;-85
2022/01/30 01:31:45;;;;;;;48.50;35.78;;;25.60;71.10;;;;;;1944933;71;21127;-85
2022/01/30 01:36:46;;;;;;;45.40;36.13;;;25.70;71.10;;;;;;1964453;71;21169;-85
2022/01/30 01:39:17;;;;;;;48.58;36.63;;;25.70;70.80;;;;;;1962288;71;21172;-84
2022/01/30 01:41:48;;;;;;;47.00;35.17;;;25.80;70.80;;;;;;1966901;71;21124;-84
2022/01/30 01:44:23;;;;;;;44.27;33.35;;;25.80;70.40;;;;;;1976073;71;21178;-83
2022/01/30 01:46:53;;;;;;;44.18;33.78;;;25.90;70.00;;;;;;1989047;71;21204;-82
2022/01/30 01:49:28;;;;;;;41.75;33.58;;;25.90;69.70;;;;;;1976597;70;21138;-84
2022/01/30 01:54:28;;;;;;;44.05;31.25;;;26.00;69.10;;;;;;1977674;71;21191;-84
2022/01/30 01:56:59;;;;;;;38.95;31.12;;;26.10;69.00;;;;;;1979492;71;22054;-83
2022/01/30 01:59:30;;;;;;;35.98;29.77;;;26.20;68.40;;;;;;1988483;71;21100;-81
2022/01/30 02:02:02;;;;;;;47.75;31.05;;;26.20;67.90;;;;;;1983238;70;21127;-84
2022/01/30 02:04:33;;;;;;;38.65;29.50;;;26.30;67.60;;;;;;1968853;72;21121;-84
2022/01/30 02:09:38;;;;;;;37.50;28.90;;;26.50;67.00;;;;;;1989207;71;21155;-84
2022/01/30 02:12:16;;;;;;;38.38;30.12;;;26.60;66.20;;;;;;1964817;71;21111;-84
2022/01/30 02:14:53;;;;;;;38.78;30.32;;;26.70;65.90;;;;;;1971509;70;21186;-70
2022/01/30 02:25:03;;;;;;;38.05;30.25;;;26.90;64.90;;;;;;1961735;70;21540;-71
2022/01/30 02:27:26;;;;;;;37.98;29.90;;;26.90;64.70;;;;;;1966046;70;21169;-71
2022/01/30 02:29:57;;;;;;;38.50;31.27;;;27.00;64.60;;;;;;1966106;71;21686;-72
2022/01/30 02:32:28;;;;;;;39.15;29.85;;;27.10;64.40;;;;;;1963165;70;21126;-70
2022/01/30 02:34:58;;;;;;;38.88;30.68;;;27.20;64.70;;;;;;1967833;70;21177;-72
2022/01/30 02:37:30;;;;;;;32.40;27.62;;;27.20;63.90;;;;;;1962189;70;21611;-72
2022/01/30 02:40:03;;;;;;;34.33;28.35;;;27.30;63.90;;;;;;1965086;70;21625;-72
2022/01/30 02:42:35;;;;;;;34.63;27.32;;;27.30;63.60;;;;;;1967779;70;21141;-71
2022/01/30 02:45:09;;;;;;;42.27;29.42;;;27.40;63.50;;;;;;1974160;70;21148;-71
2022/01/30 02:52:43;;;;;;;39.40;28.87;;;27.60;63.50;;;;;;1966582;70;21544;-73
2022/01/30 02:55:14;;;;;;;39.65;29.12;;;27.60;62.80;;;;;;1963030;71;21267;-71
2022/01/30 02:57:45;;;;;;;33.67;26.48;;;27.70;62.60;;;;;;1994758;71;21111;-72
2022/01/30 03:00:16;;;;;;;29.35;24.87;;;27.70;61.40;;;;;;1988340;71;21098;-73
2022/01/30 03:02:47;;;;;;;30.60;25.02;;;27.80;61.50;;;;;;1937849;72;22049;-73
2022/01/30 03:05:18;;;;;;;29.82;24.27;;;27.90;61.20;;;;;;1911014;73;21123;-73
2022/01/30 03:07:48;;;;;;;29.42;24.25;;;28.00;61.10;;;;;;1974183;70;21610;-73
2022/01/30 03:10:19;;;;;;;31.52;24.55;;;28.00;61.10;;;;;;1962220;70;21657;-73
2022/01/30 03:12:51;;;;;;;31.52;24.00;;;28.10;60.50;;;;;;1984550;71;21119;-73
2022/01/30 03:15:22;;;;;;;29.37;23.18;;;28.20;59.80;;;;;;1982549;71;21096;-73
2022/01/30 03:17:52;;;;;;;28.45;22.30;;;28.30;59.70;;;;;;1961740;71;21194;-72
2022/01/30 03:20:23;;;;;;;30.62;24.92;;;28.40;59.80;;;;;;1984534;71;21045;-72
2022/01/30 03:22:55;;;;;;;29.77;23.87;;;28.40;59.60;;;;;;1975832;71;21131;-72
2022/01/30 03:25:26;;;;;;;29.75;24.70;;;28.50;59.40;;;;;;1972275;71;21128;-71
2022/01/30 03:27:56;;;;;;;30.62;23.90;;;28.50;59.30;;;;;;1965163;71;21651;-73
2022/01/30 03:30:30;;;;;;;30.15;23.45;;;28.50;59.70;;;;;;1965648;71;21111;-73
2022/01/30 03:32:59;;;;;;;30.80;24.32;;;28.60;59.30;;;;;;1975310;70;21547;-73
2022/01/30 03:35:30;;;;;;;29.23;23.42;;;28.60;59.40;;;;;;1969932;71;21107;-73
2022/01/30 03:38:01;;;;;;;29.18;23.50;;;28.60;60.10;;;;;;1966253;71;21146;-72
2022/01/30 03:40:32;;;;;;;25.45;21.90;;;28.70;59.10;;;;;;1973934;71;21049;-72
2022/01/30 03:43:03;;;;;;;27.37;21.48;;;28.80;58.70;;;;;;1968082;71;21655;-73
2022/01/30 03:45:34;;;;;;;27.67;20.48;;;28.90;58.40;;;;;;1979940;71;21182;-73
2022/01/30 03:48:05;;;;;;;26.42;21.05;;;29.00;57.80;;;;;;1972024;71;21191;-73
2022/01/30 03:50:37;;;;;;;31.45;20.70;;;29.10;57.70;;;;;;1972440;70;21257;-73
2022/01/30 03:53:08;;;;;;;27.27;21.25;;;29.30;57.40;;;;;;1973517;71;21853;-73
2022/01/30 03:55:39;;;;;;;25.45;20.37;;;29.30;57.00;;;;;;1975450;70;21127;-72
2022/01/30 03:58:09;;;;;;;24.98;20.57;;;29.40;56.90;;;;;;1980133;71;21062;-73
2022/01/30 04:00:41;;;;;;;23.62;19.80;;;29.50;57.00;;;;;;1976824;70;21500;-73
2022/01/30 04:03:12;;;;;;;26.15;18.42;;;29.60;56.80;;;;;;1954442;71;21623;-71
2022/01/30 04:05:43;;;;;;;22.45;17.82;;;29.70;56.80;;;;;;1971989;71;21564;-72
2022/01/30 04:08:14;;;;;;;22.85;17.77;;;29.70;56.20;;;;;;1973964;72;21098;-72
2022/01/30 04:10:45;;;;;;;21.93;17.60;;;29.90;55.40;;;;;;1974685;71;21113;-71
2022/01/30 04:13:16;;;;;;;25.85;19.55;;;29.90;55.70;;;;;;1982702;71;21070;-72
2022/01/30 04:15:47;;;;;;;22.67;20.05;;;30.10;55.80;;;;;;1957746;71;21138;-72
2022/01/30 04:18:18;;;;;;;21.87;19.45;;;30.10;55.80;;;;;;1981218;71;21124;-70
2022/01/30 04:20:51;;;;;;;20.88;17.82;;;30.20;55.70;;;;;;1966766;70;21105;-71
2022/01/30 04:23:21;;;;;;;26.40;17.60;;;30.30;55.20;;;;;;1979555;70;21140;-71
2022/01/30 04:25:52;;;;;;;24.45;18.65;;;30.30;55.50;;;;;;1973611;71;21088;-71
2022/01/30 04:28:23;;;;;;;29.55;19.25;;;30.40;55.70;;;;;;1908033;73;21176;-71
2022/01/30 04:30:54;;;;;;;25.68;18.77;;;30.50;54.90;;;;;;1957530;71;21118;-71
2022/01/30 04:33:26;;;;;;;22.75;18.70;;;30.60;55.20;;;;;;1976511;70;21511;-71
2022/01/30 04:35:56;;;;;;;17.23;14.83;;;;;;;;;;1973435;71;21127;-71
2022/01/30 04:38:36;;;;;;;17.65;15.25;;;31.00;52.90;;;;;;1969679;71;21080;-71
2022/01/30 05:04:15;;;;;;;22.52;16.50;;;31.80;52.30;;;;;;1966790;72;21685;-73
2022/01/30 05:06:51;;;;;;;22.10;16.90;;;31.90;51.70;;;;;;1971735;71;21195;-71
2022/01/30 05:08:57;;;;;;;23.67;18.02;;;31.90;52.30;;;;;;1969698;72;21120;-70
2022/01/30 05:11:27;;;;;;;19.10;16.12;;;31.90;52.30;;;;;;1949775;72;21076;-72
2022/01/30 05:13:59;;;;;;;17.85;15.83;;;31.90;52.20;;;;;;1968257;72;21108;-72
2022/01/30 05:16:31;;;;;;;20.43;15.78;;;31.90;51.90;;;;;;1965072;72;21646;-71
2022/01/30 05:19:02;;;;;;;19.67;15.90;;;32.00;52.50;;;;;;1972784;71;21230;-71
2022/01/30 05:21:33;;;;;;;19.10;16.50;;;32.00;53.70;;;;;;1961260;72;21042;-71
2022/01/30 05:24:04;;;;;;;18.65;16.07;;;32.10;52.00;;;;;;1972474;71;21599;-72
2022/01/30 05:26:38;;;;;;;22.37;16.45;;;32.10;51.70;;;;;;1971207;71;21033;-72
2022/01/30 05:29:09;;;;;;;19.92;16.45;;;32.10;51.50;;;;;;1964967;70;21151;-72
2022/01/30 05:31:40;;;;;;;20.77;16.40;;;32.10;51.50;;;;;;1942920;72;21112;-72
2022/01/30 05:34:12;;;;;;;16.32;14.47;;;32.10;51.80;;;;;;1967985;71;21575;-72
2022/01/30 05:36:44;;;;;;;17.55;14.95;;;32.20;51.60;;;;;;1968063;72;21182;-72
2022/01/30 05:39:15;;;;;;;16.80;14.85;;;32.30;51.50;;;;;;1957608;71;21193;-71
2022/01/30 05:41:46;;;;;;;23.52;16.35;;;32.40;51.70;;;;;;1968984;71;21100;-70
2022/01/30 05:44:21;;;;;;;19.32;15.23;;;32.40;52.00;;;;;;1971023;71;21129;-71
2022/01/30 05:46:54;;;;;;;22.80;17.67;;;32.40;51.50;;;;;;1967656;70;21160;-71
2022/01/30 05:49:24;;;;;;;21.45;15.30;;;32.40;51.60;;;;;;1966820;71;21159;-71
2022/01/30 05:51:55;;;;;;;22.07;15.68;;;32.50;51.30;;;;;;1957261;72;21041;-71
2022/01/30 05:54:26;;;;;;;19.05;15.25;;;32.60;50.80;;;;;;1983683;71;21100;-71
2022/01/30 05:56:57;;;;;;;21.50;15.25;;;32.60;50.50;;;;;;1967263;70;21564;-72
2022/01/30 05:59:28;;;;;;;18.57;14.20;;;32.70;50.70;;;;;;1960557;71;21599;-71
2022/01/30 06:01:59;;;;;;;20.32;14.93;;;32.80;51.30;;;;;;1961890;71;21137;-71
2022/01/30 06:04:30;;;;;;;18.48;14.87;;;32.90;50.60;;;;;;1931538;72;21178;-72
2022/01/30 06:07:01;;;;;;;18.50;14.10;;;33.00;51.10;;;;;;1958808;72;21545;-71
2022/01/30 06:09:32;;;;;;;18.77;14.43;;;33.00;50.80;;;;;;1961518;71;21186;-71
2022/01/30 06:12:03;;;;;;;17.95;14.40;;;33.10;50.70;;;;;;1968074;71;21118;-71
2022/01/30 06:14:35;;;;;;;19.45;14.73;;;33.10;50.40;;;;;;1958160;71;21143;-71
2022/01/30 06:17:06;;;;;;;18.02;12.82;;;33.20;50.60;;;;;;1965591;71;21109;-70
2022/01/30 06:19:38;;;;;;;9.95;6.03;;;33.20;49.20;;;;;;1968088;72;21144;-72
2022/01/30 06:22:08;;;;;;;22.48;6.05;;;33.30;47.90;;;;;;1974018;71;21696;-71
2022/01/30 06:24:40;;;;;;;7.83;4.12;;;33.40;44.90;;;;;;1970539;72;21113;-72
2022/01/30 06:27:10;;;;;;;24.95;4.90;;;33.40;41.60;;;;;;1971922;72;21595;-72
2022/01/30 06:29:41;;;;;;;7.22;3.77;;;33.50;40.60;;;;;;1962168;72;21077;-71
2022/01/30 06:32:14;;;;;;;6.08;3.52;;;33.60;39.10;;;;;;1954832;72;21162;-70
2022/01/30 06:34:44;;;;;;;7.80;4.53;;;33.70;41.10;;;;;;1967233;72;21143;-70
2022/01/30 06:37:15;;;;;;;9.40;5.03;;;33.80;38.90;;;;;;1959459;70;21163;-70
2022/01/30 06:39:46;;;;;;;41.10;7.45;;;33.80;39.10;;;;;;1922624;74;21095;-69
2022/01/30 06:42:17;;;;;;;10.20;5.55;;;33.90;40.40;;;;;;1966718;71;21135;-70
2022/01/30 06:44:48;;;;;;;12.53;7.10;;;33.90;40.80;;;;;;1967462;72;21061;-70
2022/01/30 06:47:19;;;;;;;11.03;5.97;;;33.90;41.20;;;;;;1969805;71;21795;-69
2022/01/30 06:49:49;;;;;;;9.88;5.08;;;33.90;41.30;;;;;;1966191;72;21113;-70
2022/01/30 06:52:20;;;;;;;10.65;6.03;;;33.90;41.40;;;;;;1959992;71;21109;-70
2022/01/30 06:54:51;;;;;;;8.05;5.40;;;34.00;41.30;;;;;;1964580;71;21088;-70
2022/01/30 06:57:22;;;;;;;8.08;5.10;;;33.90;40.30;;;;;;1963217;72;21165;-70
2022/01/30 06:59:52;;;;;;;6.90;5.25;;;33.80;41.00;;;;;;1966341;72;22242;-70
2022/01/30 07:02:23;;;;;;;11.10;6.12;;;33.80;40.30;;;;;;1967142;71;21129;-71
2022/01/30 07:04:54;;;;;;;9.25;5.83;;;33.80;40.70;;;;;;1970846;72;21178;-70
2022/01/30 07:07:25;;;;;;;7.67;6.22;;;33.90;41.90;;;;;;1959779;72;21194;-70
2022/01/30 07:09:55;;;;;;;9.75;5.60;;;33.90;41.20;;;;;;1971958;71;21118;-70
2022/01/30 07:12:26;;;;;;;10.88;6.42;;;33.90;41.20;;;;;;1965396;71;21137;-70
2022/01/30 07:14:57;;;;;;;9.73;7.22;;;33.90;41.50;;;;;;1967339;72;21093;-70
2022/01/30 07:17:28;;;;;;;11.73;6.62;;;33.90;41.90;;;;;;1951267;73;21644;-71
2022/01/30 07:19:58;;;;;;;7.87;6.37;;;34.00;41.90;;;;;;1954293;72;21138;-69
2022/01/30 07:22:29;;;;;;;10.18;6.00;;;34.00;43.90;;;;;;1968114;70;21139;-70
2022/01/30 07:25:00;;;;;;;10.65;6.10;;;34.00;42.40;;;;;;1970262;72;21197;-70
2022/01/30 07:27:31;;;;;;;10.15;6.40;;;33.90;42.80;;;;;;1968972;72;21104;-69
2022/01/30 07:30:02;;;;;;;9.95;6.28;;;34.00;42.80;;;;;;1985992;72;21571;-70
2022/01/30 07:32:33;;;;;;;8.68;5.83;;;34.00;40.40;;;;;;1976803;72;21179;-71
2022/01/30 07:35:04;;;;;;;12.47;5.92;;;34.00;41.00;;;;;;1975647;72;21214;-71
2022/01/30 07:37:36;;;;;;;6.78;5.65;;;33.90;41.00;;;;;;1953392;72;21141;-71
2022/01/30 07:40:07;;;;;;;15.72;6.33;;;33.90;41.80;;;;;;1958952;71;21150;-71
2022/01/30 07:42:38;;;;;;;8.73;6.30;;;33.80;42.00;;;;;;1971334;71;21056;-71
2022/01/30 07:45:10;;;;;;;6.70;5.80;;;33.80;42.70;;;;;;1966957;71;21213;-71
2022/01/30 07:47:41;;;;;;;7.67;6.15;;;33.80;41.80;;;;;;1965345;71;21074;-71
2022/01/30 07:50:12;;;;;;;8.95;5.80;;;33.90;41.20;;;;;;1978613;72;21563;-72
2022/01/30 07:52:42;;;;;;;10.43;5.40;;;33.80;40.90;;;;;;1973609;71;21612;-71
2022/01/30 07:55:13;;;;;;;11.43;5.60;;;33.80;40.80;;;;;;1977031;72;21198;-71
2022/01/30 07:57:43;;;;;;;8.70;5.40;;;33.80;41.20;;;;;;1967771;71;21092;-71
2022/01/30 08:00:15;;;;;;;7.53;4.50;;;33.80;40.40;;;;;;1960105;71;21174;-72
2022/01/30 08:02:45;;;;;;;7.70;4.97;;;33.80;40.50;;;;;;1977049;71;21687;-70
2022/01/30 08:05:17;;;;;;;12.73;5.08;;;33.80;39.20;;;;;;1948486;72;21245;-71
2022/01/30 08:07:47;;;;;;;8.55;5.28;;;33.80;40.50;;;;;;1976150;72;21052;-70
2022/01/30 08:10:18;;;;;;;11.83;6.33;;;33.80;42.20;;;;;;1971581;72;21194;-70
2022/01/30 08:12:49;;;;;;;7.30;4.90;;;33.80;40.70;;;;;;1974852;72;21104;-70
2022/01/30 08:15:20;;;;;;;7.42;4.92;;;33.80;39.10;;;;;;1970430;71;21074;-71
2022/01/30 08:17:51;;;;;;;6.65;4.67;;;33.80;39.10;;;;;;1977216;72;21112;-72
2022/01/30 08:20:25;;;;;;;7.42;4.37;;;33.80;39.30;;;;;;1953006;71;21610;-71
2022/01/30 08:22:56;;;;;;;11.53;6.67;;;33.80;38.50;;;;;;1933966;73;21214;-71
2022/01/30 08:25:26;;;;;;;8.10;6.10;;;33.80;38.40;;;;;;1981164;70;21135;-70
2022/01/30 08:27:57;;;;;;;9.05;5.92;;;33.70;39.20;;;;;;1958565;72;21142;-71
2022/01/30 08:30:28;;;;;;;6.05;4.17;;;33.70;39.10;;;;;;1923287;74;21094;-71
2022/01/30 08:32:59;;;;;;;8.48;5.22;;;33.70;39.00;;;;;;1933016;74;21052;-70
2022/01/30 08:35:31;;;;;;;12.18;4.92;;;33.70;39.90;;;;;;1921885;74;21142;-71
2022/01/30 08:38:02;;;;;;;8.43;5.80;;;33.70;40.20;;;;;;1961236;72;21540;-70
2022/01/30 08:40:33;;;;;;;11.60;6.10;;;33.70;40.20;;;;;;1970958;71;21152;-70
2022/01/30 08:43:04;;;;;;;6.42;5.33;;;33.70;40.20;;;;;;1969141;71;21599;-70
2022/01/30 08:45:35;;;;;;;10.90;5.92;;;33.60;39.80;;;;;;2006311;70;21126;-71
2022/01/30 08:48:06;;;;;;;5.62;4.85;;;33.60;39.80;;;;;;1966900;72;22352;-71
2022/01/30 08:50:37;;;;;;;6.87;5.65;;;33.60;39.70;;;;;;1978647;71;21172;-71
2022/01/30 08:53:08;;;;;;;9.93;6.10;;;33.60;40.50;;;;;;1975680;71;21091;-71
2022/01/30 08:55:38;;;;;;;8.60;6.17;;;33.60;41.30;;;;;;1961846;72;21230;-70
2022/01/30 08:58:09;;;;;;;8.45;5.60;;;33.60;41.10;;;;;;1982130;71;21033;-70
2022/01/30 09:00:42;;;;;;;11.80;6.60;;;33.50;41.20;;;;;;1967569;72;21178;-70
2022/01/30 09:03:14;;;;;;;7.22;5.75;;;33.60;42.00;;;;;;1969152;72;21109;-70
2022/01/30 09:05:45;;;;;;;9.80;6.10;;;33.50;42.20;;;;;;1976596;71;21158;-70
2022/01/30 09:08:16;;;;;;;9.25;6.40;;;33.50;42.20;;;;;;1969273;72;21134;-70
2022/01/30 09:10:46;;;;;;;11.15;6.70;;;33.50;42.70;;;;;;1970858;72;21607;-70
2022/01/30 09:13:17;;;;;;;8.00;6.42;;;33.50;41.90;;;;;;1963589;72;21153;-70
2022/01/30 09:15:48;;;;;;;8.70;6.70;;;33.50;40.80;;;;;;1970334;72;21104;-70
2022/01/30 09:18:19;;;;;;;12.07;7.05;;;33.40;39.90;;;;;;1967742;72;21637;-70
2022/01/30 09:20:50;;;;;;;9.53;6.25;;;33.40;39.40;;;;;;1967118;72;21531;-70
2022/01/30 09:23:21;;;;;;;9.43;6.12;;;33.40;39.30;;;;;;1967002;72;21116;-70
2022/01/30 09:25:52;;;;;;;7.75;6.30;;;33.40;39.90;;;;;;1960906;73;21564;-70
2022/01/30 09:28:23;;;;;;;7.28;5.40;;;33.40;40.20;;;;;;1972715;72;21159;-70
2022/01/30 09:30:54;;;;;;;6.53;5.25;;;33.40;40.40;;;;;;1979578;72;21604;-70
2022/01/30 09:33:24;;;;;;;11.83;6.28;;;33.40;40.50;;;;;;1960745;72;21115;-70
2022/01/30 09:35:55;;;;;;;13.45;6.65;;;33.40;40.30;;;;;;1956898;72;21039;-70
2022/01/30 09:38:26;;;;;;;8.38;6.05;;;33.30;40.40;;;;;;1980110;72;21046;-71
2022/01/30 09:40:58;;;;;;;8.55;6.40;;;33.30;42.00;;;;;;1963705;72;21224;-70
2022/01/30 09:43:30;;;;;;;12.07;6.30;;;33.30;41.40;;;;;;1971262;72;21124;-70
2022/01/30 09:46:01;;;;;;;8.65;6.80;;;33.20;42.00;;;;;;1965520;71;21142;-71
2022/01/30 09:48:34;;;;;;;9.53;6.80;;;33.20;41.90;;;;;;1956830;73;21128;-70
2022/01/30 09:51:07;;;;;;;12.33;5.97;;;33.20;41.60;;;;;;1965987;72;21132;-70
2022/01/30 09:53:38;;;;;;;9.60;6.00;;;33.20;40.40;;;;;;1970401;72;21173;-70
2022/01/30 09:56:09;;;;;;;9.13;6.00;;;33.20;41.10;;;;;;1959236;71;21532;-70
2022/01/30 09:58:40;;;;;;;7.60;6.47;;;33.10;41.20;;;;;;1960697;71;21068;-70
2022/01/30 10:01:11;;;;;;;10.15;6.67;;;33.00;41.40;;;;;;1967899;71;21595;-71
2022/01/30 10:03:41;;;;;;;11.12;7.12;;;33.00;42.00;;;;;;1970692;73;21821;-70
2022/01/30 10:06:18;;;;;;;8.58;6.78;;;33.00;41.60;;;;;;1969407;71;21658;-69
2022/01/30 10:08:52;;;;;;;10.90;8.00;;;32.90;41.40;;;;;;1916398;73;21591;-70
2022/01/30 10:13:55;;;;;;;11.10;7.05;;;32.80;42.80;;;;;;1957436;72;21181;-70
2022/01/30 10:16:25;;;;;;;12.65;7.33;;;32.70;42.50;;;;;;1968967;72;21552;-70
2022/01/30 10:18:57;;;;;;;10.00;7.20;;;32.70;42.90;;;;;;1965647;71;22289;-69
2022/01/30 10:21:29;;;;;;;10.78;6.53;;;32.70;43.20;;;;;;1994805;70;21205;-70
2022/01/30 10:24:00;;;;;;;11.22;6.67;;;32.60;43.10;;;;;;1970323;71;21190;-70
2022/01/30 10:26:32;;;;;;;8.23;7.03;;;32.50;42.80;;;;;;1970131;72;21515;-71
2022/01/30 10:29:05;;;;;;;9.20;7.08;;;32.50;43.40;;;;;;1960096;72;21108;-70
2022/01/30 10:31:38;;;;;;;10.72;7.17;;;32.50;43.10;;;;;;1935054;72;22015;-70
2022/01/30 10:34:12;;;;;;;10.50;6.72;;;32.40;42.90;;;;;;1955500;72;21133;-70
2022/01/30 10:36:43;;;;;;;14.05;7.72;;;32.40;43.00;;;;;;1955578;71;21624;-71
2022/01/30 10:39:18;;;;;;;10.35;8.48;;;32.30;42.90;;;;;;1966695;72;21150;-70
2022/01/30 10:41:53;;;;;;;11.45;7.33;;;32.30;43.00;;;;;;1952752;72;21073;-70
2022/01/30 10:44:19;;;;;;;12.20;7.03;;;32.30;42.90;;;;;;1968945;72;21088;-70
2022/01/30 10:46:54;;;;;;;9.08;6.83;;;32.30;42.50;;;;;;1948694;73;21127;-70
2022/01/30 10:49:24;;;;;;;11.85;9.25;;;32.20;42.40;;;;;;1960380;72;21084;-70
2022/01/30 10:51:57;;;;;;;9.35;7.10;;;32.20;42.40;;;;;;1945104;72;21116;-70
2022/01/30 10:54:31;;;;;;;14.13;8.50;;;32.10;42.10;;;;;;1899485;74;21182;-69
2022/01/30 10:57:04;;;;;;;13.93;7.83;;;32.10;42.20;;;;;;2009461;71;21135;-69
2022/01/30 10:59:42;;;;;;;14.95;8.25;;;32.00;42.40;;;;;;1964839;71;21123;-70
2022/01/30 11:02:10;;;;;;;13.68;8.70;;;31.90;42.50;;;;;;1974781;70;21157;-70
2022/01/30 11:04:42;;;;;;;17.17;9.73;;;31.90;42.80;;;;;;1971182;71;21644;-70
2022/01/30 11:07:16;;;;;;;16.00;9.70;;;31.80;42.90;;;;;;1970014;71;21591;-70
2022/01/30 11:09:48;;;;;;;14.38;9.33;;;31.80;43.20;;;;;;1951120;72;21103;-70
2022/01/30 11:12:30;;;;;;;14.07;9.88;;;31.70;44.00;;;;;;1942981;72;21536;-70
2022/01/30 11:15:04;;;;;;;14.35;9.98;;;31.70;43.60;;;;;;1931405;73;21097;-70
2022/01/30 11:17:24;;;;;;;22.80;10.05;;;31.60;43.80;;;;;;1927864;74;21082;-71
2022/01/30 11:19:58;;;;;;;16.27;10.32;;;31.60;44.10;;;;;;1941015;72;21685;-71
2022/01/30 11:22:30;;;;;;;15.32;9.65;;;31.50;44.30;;;;;;1956080;73;21136;-71
2022/01/30 11:25:02;;;;;;;17.57;10.82;;;31.50;44.50;;;;;;1932392;74;21709;-71
2022/01/30 11:27:35;;;;;;;17.73;10.88;;;31.40;45.10;;;;;;1894331;75;21218;-82
2022/01/30 11:30:07;;;;;;;16.17;10.80;;;31.40;44.90;;;;;;1895396;74;21077;-81
2022/01/30 11:32:39;;;;;;;16.30;11.95;;;31.30;45.10;;;;;;1939868;73;21062;-81
2022/01/30 11:35:11;;;;;;;14.80;11.33;;;31.30;45.30;;;;;;1943574;74;21166;-81
2022/01/30 11:37:43;;;;;;;16.02;11.73;;;31.30;45.50;;;;;;1941890;74;21109;-82
2022/01/30 11:40:16;;;;;;;19.55;11.85;;;31.20;45.60;;;;;;1943335;73;21208;-82
2022/01/30 11:42:49;;;;;;;12.73;11.00;;;31.20;45.80;;;;;;1970221;71;21200;-83
2022/01/30 11:45:20;;;;;;;15.48;11.10;;;31.20;45.80;;;;;;1923380;73;21148;-81
2022/01/30 11:48:03;;;;;;;16.67;11.28;;;31.20;46.00;;;;;;1925590;73;21243;-82
2022/01/30 11:50:29;;;;;;;18.25;11.50;;;31.10;46.20;;;;;;1934446;72;21076;-83
2022/01/30 11:53:01;;;;;;;16.52;11.68;;;31.10;46.30;;;;;;1916897;73;21183;-81
2022/01/30 11:55:37;;;;;;;16.32;12.40;;;31.00;46.50;;;;;;1886149;74;21167;-82
2022/01/30 11:58:10;;;;;;;17.27;12.00;;;31.00;46.50;;;;;;1898428;74;21261;-82
2022/01/30 12:00:43;;;;;;;17.65;12.00;;;31.00;46.50;;;;;;1927534;72;21182;-82
2022/01/30 12:03:16;;;;;;;19.87;13.13;;;30.90;46.70;;;;;;1948851;71;21531;-84
2022/01/30 12:05:47;;;;;;;19.87;13.48;;;30.90;46.80;;;;;;1889767;75;21253;-81
2022/01/30 12:08:20;;;;;;;21.90;14.33;;;30.90;46.90;;;;;;1979429;71;21163;-82
2022/01/30 12:10:51;;;;;;;21.48;14.78;;;30.80;47.10;;;;;;1967931;72;21179;-83
2022/01/30 12:13:24;;;;;;;20.17;14.28;;;30.70;47.00;;;;;;1958524;71;21144;-83
2022/01/30 12:15:54;;;;;;;21.20;15.40;;;30.70;47.20;;;;;;1948907;72;21161;-86
2022/01/30 12:18:27;;;;;;;22.75;14.40;;;30.70;47.30;;;;;;1967265;71;21228;-83
2022/01/30 12:20:59;;;;;;;19.67;13.78;;;30.70;47.30;;;;;;1913597;74;21213;-83
2022/01/30 12:23:32;;;;;;;19.35;13.35;;;30.60;47.40;;;;;;1872422;76;21136;-83
2022/01/30 12:26:06;;;;;;;22.17;14.95;;;30.60;47.60;;;;;;1958498;71;21633;-83
2022/01/30 12:28:39;;;;;;;23.60;15.13;;;30.50;47.80;;;;;;1977531;71;21581;-84
2022/01/30 12:31:13;;;;;;;25.15;15.08;;;30.50;48.00;;;;;;1980530;71;21087;-83
2022/01/30 12:33:44;;;;;;;24.80;14.78;;;30.40;48.00;;;;;;1947823;73;21128;-83
2022/01/30 12:36:17;;;;;;;20.82;14.83;;;30.40;48.00;;;;;;1950436;73;21096;-84
2022/01/30 12:38:49;;;;;;;20.35;15.10;;;30.30;48.20;;;;;;1956520;71;21140;-83
2022/01/30 12:41:22;;;;;;;19.32;14.20;;;30.30;48.30;;;;;;1941954;73;21097;-83
2022/01/30 12:44:00;;;;;;;22.32;14.87;;;30.30;48.40;;;;;;1960025;71;21150;-83
2022/01/30 12:46:34;;;;;;;22.65;12.78;;;30.20;48.40;;;;;;1952169;72;21076;-83
2022/01/30 12:49:07;;;;;;;20.50;13.83;;;30.20;48.50;;;;;;1949335;72;21853;-84
2022/01/30 12:51:40;;;;;;;22.73;14.75;;;30.20;48.70;;;;;;1947261;72;21148;-84
2022/01/30 12:54:11;;;;;;;23.27;13.55;;;30.20;48.70;;;;;;1949680;73;21069;-83
2022/01/30 12:56:42;;;;;;;18.07;13.03;;;30.10;49.00;;;;;;1968700;71;21088;-84
2022/01/30 12:59:15;;;;;;;17.75;13.53;;;30.10;49.30;;;;;;1960568;71;21115;-84
2022/01/30 13:01:48;;;;;;;22.37;14.05;;;30.10;49.50;;;;;;1957229;71;21210;-84
2022/01/30 13:04:22;;;;;;;21.05;13.93;;;30.10;49.70;;;;;;1947290;71;21154;-84
2022/01/30 13:06:53;;;;;;;19.00;13.53;;;30.00;49.80;;;;;;1943229;71;21155;-83
2022/01/30 13:09:27;;;;;;;21.90;13.48;;;30.00;50.00;;;;;;1955953;72;21572;-83
2022/01/30 13:12:00;;;;;;;24.05;14.20;;;30.00;50.00;;;;;;1950600;72;21099;-84
2022/01/30 13:14:33;;;;;;;20.32;13.58;;;29.90;50.10;;;;;;1916208;74;21079;-83
2022/01/30 13:17:05;;;;;;;21.52;14.53;;;29.90;50.00;;;;;;1948765;71;21053;-83
2022/01/30 13:19:45;;;;;;;29.67;13.88;;;29.90;50.50;;;;;;1963325;71;21202;-83
2022/01/30 13:22:18;;;;;;;21.17;13.25;;;29.90;50.70;;;;;;1955318;72;21103;-83
2022/01/30 13:25:03;;;;;;;24.43;14.63;;;29.80;50.60;;;;;;1952351;72;21713;-85
2022/01/30 13:27:45;;;;;;;18.95;13.85;;;29.80;50.80;;;;;;1953576;72;21156;-83
2022/01/30 13:30:18;;;;;;;21.60;15.35;;;29.80;50.90;;;;;;1942274;72;21646;-83
2022/01/30 13:32:50;;;;;;;23.15;14.75;;;29.70;50.80;;;;;;1953926;72;21069;-83
2022/01/30 13:35:23;;;;;;;27.55;14.43;;;29.70;50.90;;;;;;1964505;72;21093;-83
2022/01/30 13:37:58;;;;;;;23.98;15.50;;;29.70;51.00;;;;;;1953959;72;21078;-84
2022/01/30 13:40:44;;;;;;;26.35;15.80;;;29.70;51.00;;;;;;1955958;72;21081;-83
2022/01/30 13:43:12;;;;;;;26.95;15.78;;;29.70;51.00;;;;;;1942177;72;21120;-83
2022/01/30 13:48:11;;;;;;;26.27;18.37;;;29.70;51.10;;;;;;1956797;72;21120;-82
2022/01/30 13:50:43;;;;;;;33.08;20.10;;;29.70;51.40;;;;;;1962531;72;21616;-83
2022/01/30 13:53:16;;;;;;;25.32;17.57;;;29.60;51.10;;;;;;1955875;72;21177;-82
2022/01/30 13:55:49;;;;;;;21.35;16.35;;;29.60;51.50;;;;;;1957379;73;21112;-83
2022/01/30 13:58:22;;;;;;;23.42;16.20;;;29.60;51.40;;;;;;1944806;72;21703;-83
2022/01/30 14:00:53;;;;;;;34.15;18.48;;;29.60;51.70;;;;;;1948640;72;21065;-83